| time (UTC) | temp F | wind direction | speed MPH | gust MPH | rain 1hr in | rain 24hr in | rain mn in | humidity % | barometer mb |
| 20260507121911 | 70 | 0.0 | 0.0 | 0.00 | 0.00 | 0.00 | 57 | 1011.8 | |
| 20260507120313 | 71 | 0.0 | 0.0 | 0.00 | 0.00 | 0.00 | 54 | 1011.7 | |
| 20260507114716 | 70 | 0.0 | 0.0 | 0.00 | 0.00 | 0.00 | 56 | 1011.9 | |
| 20260507113117 | 74 | 0.0 | 0.0 | 0.00 | 0.00 | 0.00 | 53 | 1011.3 | |
| 20260507111519 | 70 | 0.0 | 0.0 | 0.00 | 0.00 | 0.00 | 59 | 1011.8 | |
| 20260507105921 | 70 | 0.0 | 0.0 | 0.00 | 0.00 | 0.00 | 60 | 1011.7 | |
| 20260507104323 | 70 | 0.0 | 0.0 | 0.00 | 0.00 | 0.00 | 59 | 1011.3 | |
| 20260507102725 | 68 | 0.0 | 0.0 | 0.00 | 0.00 | 0.00 | 63 | 1010.9 | |
| 20260507101127 | 68 | 0.0 | 0.0 | 0.00 | 0.00 | 0.00 | 62 | 1010.6 | |
| 20260507095529 | 67 | 0.0 | 0.0 | 0.00 | 0.00 | 0.00 | 66 | 1010.6 | |
| 20260507093931 | 67 | 0.0 | 0.0 | 0.00 | 0.00 | 0.00 | 66 | 1009.7 | |
| 20260507092333 | 66 | 0.0 | 0.0 | 0.00 | 0.00 | 0.00 | 68 | 1009.7 | |
| 20260507090736 | 66 | 0.0 | 0.0 | 0.00 | 0.00 | 0.00 | 70 | 1009.0 | |
| 20260507085137 | 66 | 0.0 | 0.0 | 0.00 | 0.00 | 0.00 | 69 | 1008.7 | |
| 20260507083539 | 66 | 0.0 | 0.0 | 0.00 | 0.00 | 0.00 | 70 | 1008.4 | |
| 20260507081941 | 66 | 0.0 | 0.0 | 0.00 | 0.00 | 0.00 | 72 | 1007.9 | |
| 20260507080343 | 65 | 0.0 | 0.0 | 0.00 | 0.00 | 0.00 | 73 | 1008.0 | |
| 20260507074745 | 64 | 0.0 | 0.0 | 0.00 | 0.00 | 0.00 | 74 | 1007.8 | |
| 20260507073148 | 63 | 0.0 | 0.0 | 0.00 | 0.00 | 0.00 | 75 | 1007.5 | |
| 20260507071549 | 64 | 0.0 | 0.0 | 0.00 | 0.00 | 0.00 | 75 | 1006.9 | |
| 20260507065952 | 64 | 0.0 | 0.0 | 0.00 | 0.00 | 0.00 | 74 | 1006.9 | |
| 20260507064353 | 63 | 0.0 | 0.0 | 0.00 | 0.00 | 0.00 | 76 | 1007.0 | |
| 20260507062755 | 62 | 0.0 | 0.0 | 0.00 | 0.00 | 0.00 | 76 | 1007.2 | |
| 20260507061157 | 62 | 0.0 | 0.0 | 0.00 | 0.00 | 0.00 | 77 | 1006.9 | |
| 20260507055559 | 62 | 0.0 | 0.0 | 0.00 | 0.00 | 0.00 | 76 | 1006.6 | |
| 20260507054001 | 62 | 0.0 | 0.0 | 0.00 | 0.00 | 0.00 | 74 | 1006.7 | |
| 20260507052403 | 63 | 0.0 | 0.0 | 0.00 | 0.00 | 0.00 | 73 | 1006.8 | |
| 20260507050805 | 64 | 0.0 | 0.0 | 0.00 | 0.00 | 0.00 | 69 | 1006.8 | |
| 20260507045208 | 64 | 0.0 | 0.0 | 0.00 | 0.00 | 0.00 | 69 | 1006.8 | |
| 20260507043610 | 66 | 0.0 | 0.0 | 0.00 | 0.00 | 0.00 | 66 | 1006.6 | |
| 20260507042011 | 64 | 0.0 | 0.0 | 0.00 | 0.00 | 0.00 | 68 | 1006.6 | |
| 20260507040519 | 65 | 0.0 | 0.0 | 0.00 | 0.00 | 0.00 | 66 | 1006.5 | |
| 20260507040414 | 65 | 0.0 | 0.0 | 0.00 | 0.00 | 0.00 | 66 | 1006.5 | |
| 20260507034823 | 65 | 0.0 | 0.0 | 0.00 | 0.00 | 0.00 | 66 | 1006.7 | |
| 20260507034815 | 65 | 0.0 | 0.0 | 0.00 | 0.00 | 0.00 | 66 | 1006.7 | |
| 20260507033217 | 66 | 0.0 | 0.0 | 0.00 | 0.00 | 0.00 | 65 | 1006.2 | |
| 20260507031619 | 65 | 0.0 | 0.0 | 0.00 | 0.00 | 0.00 | 66 | 1006.3 | |
| 20260507030021 | 65 | 0.0 | 0.0 | 0.00 | 0.00 | 0.00 | 65 | 1006.4 | |
| 20260507024423 | 65 | 0.0 | 0.0 | 0.00 | 0.00 | 0.00 | 66 | 1006.3 | |
| 20260507022825 | 65 | 0.0 | 0.0 | 0.00 | 0.00 | 0.00 | 65 | 1006.2 | |
| 20260507021226 | 65 | 0.0 | 0.0 | 0.00 | 0.00 | 0.00 | 66 | 1006.1 | |
| 20260507015629 | 65 | 0.0 | 0.0 | 0.00 | 0.00 | 0.00 | 65 | 1006.1 | |
| 20260507014031 | 65 | 0.0 | 0.0 | 0.00 | 0.00 | 0.00 | 65 | 1006.2 | |
| 20260507012433 | 65 | 0.0 | 0.0 | 0.00 | 0.00 | 0.00 | 64 | 1006.1 | |
| 20260507010834 | 66 | 0.0 | 0.0 | 0.00 | 0.00 | 0.00 | 63 | 1005.9 | |
| 20260507005237 | 66 | 0.0 | 0.0 | 0.00 | 0.00 | 0.00 | 64 | 1005.8 | |
| 20260507003639 | 66 | 0.0 | 0.0 | 0.00 | 0.00 | 0.00 | 64 | 1005.9 | |
| 20260507002041 | 66 | 0.0 | 0.0 | 0.00 | 0.00 | 0.00 | 63 | 1006.0 | |
| 20260507000443 | 67 | 0.0 | 0.0 | 0.00 | 0.00 | 0.00 | 61 | 1006.1 | |
| 20260506234853 | 67 | 0.0 | 0.0 | 0.00 | 0.00 | 0.00 | 62 | 1006.1 | |
| 20260506234845 | 67 | 0.0 | 0.0 | 0.00 | 0.00 | 0.00 | 62 | 1006.1 | |
| 20260506233247 | 67 | 0.0 | 0.0 | 0.00 | 0.00 | 0.00 | 61 | 1006.3 | |
| 20260506231648 | 68 | 0.0 | 0.0 | 0.00 | 0.00 | 0.00 | 58 | 1006.4 | |
| 20260506230052 | 68 | 0.0 | 0.0 | 0.00 | 0.00 | 0.00 | 58 | 1006.5 | |
| 20260506224453 | 68 | 0.0 | 0.0 | 0.00 | 0.00 | 0.00 | 59 | 1006.6 | |
| 20260506222856 | 68 | 0.0 | 0.0 | 0.00 | 0.00 | 0.00 | 59 | 1006.6 | |
| 20260506221257 | 68 | 0.0 | 0.0 | 0.00 | 0.00 | 0.00 | 59 | 1006.6 | |
| 20260506215659 | 68 | 0.0 | 0.0 | 0.00 | 0.00 | 0.00 | 58 | 1006.9 | |
| 20260506214102 | 69 | 0.0 | 0.0 | 0.00 | 0.00 | 0.00 | 56 | 1006.7 | |
| 20260506212503 | 69 | 0.0 | 0.0 | 0.00 | 0.00 | 0.00 | 56 | 1006.9 | |
| 20260506210905 | 70 | 0.0 | 0.0 | 0.00 | 0.00 | 0.00 | 54 | 1006.6 | |
| 20260506205321 | 70 | 0.0 | 0.0 | 0.00 | 0.00 | 0.00 | 55 | 1006.6 | |
| 20260506205307 | 70 | 0.0 | 0.0 | 0.00 | 0.00 | 0.00 | 55 | 1006.6 | |
| 20260506203711 | 70 | 0.0 | 0.0 | 0.00 | 0.00 | 0.00 | 55 | 1006.4 | |
| 20260506202111 | 71 | 0.0 | 0.0 | 0.00 | 0.00 | 0.00 | 53 | 1006.5 | |
| 20260506200513 | 71 | 0.0 | 0.0 | 0.00 | 0.00 | 0.00 | 55 | 1006.3 | |
| 20260506194916 | 71 | 0.0 | 0.0 | 0.00 | 0.00 | 0.00 | 54 | 1006.0 | |
| 20260506193317 | 70 | 0.0 | 0.0 | 0.00 | 0.00 | 0.00 | 55 | 1006.0 | |
| 20260506191719 | 71 | 0.0 | 0.0 | 0.00 | 0.00 | 0.00 | 55 | 1005.9 | |
| 20260506190122 | 71 | 0.0 | 0.0 | 0.00 | 0.00 | 0.00 | 56 | 1005.6 | |
| 20260506184523 | 71 | 0.0 | 0.0 | 0.00 | 0.00 | 0.00 | 58 | 1005.1 | |
| 20260506182925 | 71 | 0.0 | 0.0 | 0.00 | 0.00 | 0.00 | 58 | 1005.0 | |
| 20260506181327 | 71 | 0.0 | 0.0 | 0.00 | 0.00 | 0.00 | 59 | 1004.9 | |
| 20260506175729 | 75 | 0.0 | 0.0 | 0.00 | 0.00 | 0.00 | 55 | 1004.2 | |
| 20260506174131 | 75 | 0.0 | 0.0 | 0.00 | 0.00 | 0.00 | 57 | 1003.9 | |
| 20260506172533 | 77 | 0.0 | 0.0 | 0.00 | 0.00 | 0.00 | 51 | 1004.3 | |
| 20260506170935 | 73 | 0.0 | 0.0 | 0.00 | 0.00 | 0.00 | 56 | 1004.9 | |
| 20260506165338 | 73 | 0.0 | 0.0 | 0.00 | 0.00 | 0.00 | 55 | 1004.8 | |
| 20260506163739 | 73 | 0.0 | 0.0 | 0.00 | 0.00 | 0.00 | 61 | 1003.6 | |
| 20260506162523 | 71 | 0.0 | 0.0 | 0.00 | 0.00 | 0.00 | 51 | 1006.3 | |
| 20260506162141 | 71 | 0.0 | 0.0 | 0.00 | 0.00 | 0.00 | 51 | 1006.3 | |
| 20260506160544 | 71 | 0.0 | 0.0 | 0.00 | 0.00 | 0.00 | 50 | 1007.0 | |
| 20260506154945 | 73 | 0.0 | 0.0 | 0.00 | 0.00 | 0.00 | 49 | 1006.5 | |
| 20260506153347 | 74 | 0.0 | 0.0 | 0.00 | 0.00 | 0.00 | 48 | 1006.5 | |
| 20260506151749 | 77 | 0.0 | 0.0 | 0.00 | 0.00 | 0.00 | 40 | 1006.6 | |
| 20260506150151 | 77 | 0.0 | 0.0 | 0.00 | 0.00 | 0.00 | 40 | 1006.4 | |
| 20260506144553 | 82 | 0.0 | 0.0 | 0.00 | 0.00 | 0.00 | 35 | 1005.7 | |
| 20260506142955 | 78 | 0.0 | 0.0 | 0.00 | 0.00 | 0.00 | 37 | 1006.6 | |
| 20260506141357 | 79 | 0.0 | 0.0 | 0.00 | 0.00 | 0.00 | 37 | 1006.3 | |
| 20260506135759 | 80 | 0.0 | 0.0 | 0.00 | 0.00 | 0.00 | 36 | 1006.3 | |
| 20260506134201 | 80 | 0.0 | 0.0 | 0.00 | 0.00 | 0.00 | 38 | 1006.0 | |
| 20260506132603 | 78 | 0.0 | 0.0 | 0.00 | 0.00 | 0.00 | 39 | 1006.6 | |
| 20260506131005 | 76 | 0.0 | 0.0 | 0.00 | 0.00 | 0.00 | 43 | 1006.6 | |
| 20260506125407 | 76 | 0.0 | 0.0 | 0.00 | 0.00 | 0.00 | 44 | 1006.8 | |
| 20260506123809 | 77 | 0.0 | 0.0 | 0.00 | 0.00 | 0.00 | 42 | 1006.6 |